sensor_id;sensor_type;location;lat;lon;timestamp;temperature;humidity
27224;DHT22;14965;50.660;13.226;2024-01-15T00:01:03;-0.70;99.90
27224;DHT22;14965;50.660;13.226;2024-01-15T00:03:29;-0.70;99.90
27224;DHT22;14965;50.660;13.226;2024-01-15T00:05:55;-0.70;99.90
27224;DHT22;14965;50.660;13.226;2024-01-15T00:08:21;-0.80;99.90
27224;DHT22;14965;50.660;13.226;2024-01-15T00:10:48;-0.70;99.90
27224;DHT22;14965;50.660;13.226;2024-01-15T00:13:14;-0.70;99.90
27224;DHT22;14965;50.660;13.226;2024-01-15T00:15:40;-0.70;99.90
27224;DHT22;14965;50.660;13.226;2024-01-15T00:18:06;-0.70;99.90
27224;DHT22;14965;50.660;13.226;2024-01-15T00:20:32;-0.70;99.90
27224;DHT22;14965;50.660;13.226;2024-01-15T00:22:57;-0.70;99.90
27224;DHT22;14965;50.660;13.226;2024-01-15T00:25:23;-0.80;99.90
27224;DHT22;14965;50.660;13.226;2024-01-15T00:27:51;-0.80;99.90
27224;DHT22;14965;50.660;13.226;2024-01-15T00:30:17;-0.80;99.90
27224;DHT22;14965;50.660;13.226;2024-01-15T00:32:42;-0.80;99.90
27224;DHT22;14965;50.660;13.226;2024-01-15T00:35:08;-0.80;99.90
27224;DHT22;14965;50.660;13.226;2024-01-15T00:37:34;-0.80;99.90
27224;DHT22;14965;50.660;13.226;2024-01-15T00:40:00;-0.80;99.90
27224;DHT22;14965;50.660;13.226;2024-01-15T00:42:26;-0.80;99.90
27224;DHT22;14965;50.660;13.226;2024-01-15T00:44:53;-0.80;99.90
27224;DHT22;14965;50.660;13.226;2024-01-15T00:47:19;-0.80;99.90
27224;DHT22;14965;50.660;13.226;2024-01-15T00:49:45;-0.80;99.90
27224;DHT22;14965;50.660;13.226;2024-01-15T00:52:11;-0.80;99.90
27224;DHT22;14965;50.660;13.226;2024-01-15T00:54:37;-0.80;99.90
27224;DHT22;14965;50.660;13.226;2024-01-15T00:57:03;-0.80;99.90
27224;DHT22;14965;50.660;13.226;2024-01-15T00:59:29;-0.80;99.90
27224;DHT22;14965;50.660;13.226;2024-01-15T01:01:57;-0.80;99.90
27224;DHT22;14965;50.660;13.226;2024-01-15T01:04:22;-0.80;99.90
27224;DHT22;14965;50.660;13.226;2024-01-15T01:06:48;-0.80;99.90
27224;DHT22;14965;50.660;13.226;2024-01-15T01:09:14;-0.80;99.90
27224;DHT22;14965;50.660;13.226;2024-01-15T01:11:40;-0.80;99.90
27224;DHT22;14965;50.660;13.226;2024-01-15T01:14:06;-0.80;99.90
27224;DHT22;14965;50.660;13.226;2024-01-15T01:16:32;-0.80;99.90
27224;DHT22;14965;50.660;13.226;2024-01-15T01:18:59;-0.80;99.90
27224;DHT22;14965;50.660;13.226;2024-01-15T01:21:25;-0.90;99.90
27224;DHT22;14965;50.660;13.226;2024-01-15T01:23:51;-0.90;99.90
27224;DHT22;14965;50.660;13.226;2024-01-15T01:26:17;-0.90;99.90
27224;DHT22;14965;50.660;13.226;2024-01-15T01:28:43;-0.90;99.90
27224;DHT22;14965;50.660;13.226;2024-01-15T01:31:09;-0.90;99.90
27224;DHT22;14965;50.660;13.226;2024-01-15T01:33:35;-0.90;99.90
27224;DHT22;14965;50.660;13.226;2024-01-15T01:36:07;-1.00;99.90
27224;DHT22;14965;50.660;13.226;2024-01-15T01:38:33;-1.00;99.90
27224;DHT22;14965;50.660;13.226;2024-01-15T01:40:59;-1.10;99.90
27224;DHT22;14965;50.660;13.226;2024-01-15T01:43:25;-1.20;99.90
27224;DHT22;14965;50.660;13.226;2024-01-15T01:45:51;-1.20;99.90
27224;DHT22;14965;50.660;13.226;2024-01-15T01:48:16;-1.20;99.90
27224;DHT22;14965;50.660;13.226;2024-01-15T01:50:43;-1.20;99.90
27224;DHT22;14965;50.660;13.226;2024-01-15T01:53:10;-1.20;99.90
27224;DHT22;14965;50.660;13.226;2024-01-15T01:55:36;-1.30;99.90
27224;DHT22;14965;50.660;13.226;2024-01-15T01:58:04;-1.30;99.90
27224;DHT22;14965;50.660;13.226;2024-01-15T02:00:31;-1.30;99.90
27224;DHT22;14965;50.660;13.226;2024-01-15T02:02:59;-1.30;99.90
27224;DHT22;14965;50.660;13.226;2024-01-15T02:05:25;-1.30;99.90
27224;DHT22;14965;50.660;13.226;2024-01-15T02:07:52;-1.30;99.90
27224;DHT22;14965;50.660;13.226;2024-01-15T02:10:20;-1.40;99.90
27224;DHT22;14965;50.660;13.226;2024-01-15T02:12:45;-1.30;99.90
27224;DHT22;14965;50.660;13.226;2024-01-15T02:15:11;-1.30;99.90
27224;DHT22;14965;50.660;13.226;2024-01-15T02:17:59;-1.40;99.90
27224;DHT22;14965;50.660;13.226;2024-01-15T02:20:25;-1.40;99.90
27224;DHT22;14965;50.660;13.226;2024-01-15T02:22:52;-1.40;99.90
27224;DHT22;14965;50.660;13.226;2024-01-15T02:25:20;-1.40;99.90
27224;DHT22;14965;50.660;13.226;2024-01-15T02:27:46;-1.30;99.90
27224;DHT22;14965;50.660;13.226;2024-01-15T02:30:13;-1.40;99.90
27224;DHT22;14965;50.660;13.226;2024-01-15T02:32:39;-1.30;99.90
27224;DHT22;14965;50.660;13.226;2024-01-15T02:35:05;-1.30;99.90
27224;DHT22;14965;50.660;13.226;2024-01-15T02:37:31;-1.30;99.90
27224;DHT22;14965;50.660;13.226;2024-01-15T02:39:57;-1.30;99.90
27224;DHT22;14965;50.660;13.226;2024-01-15T02:42:26;-1.30;99.90
27224;DHT22;14965;50.660;13.226;2024-01-15T02:44:52;-1.30;99.90
27224;DHT22;14965;50.660;13.226;2024-01-15T02:47:17;-1.30;99.90
27224;DHT22;14965;50.660;13.226;2024-01-15T02:49:43;-1.30;99.90
27224;DHT22;14965;50.660;13.226;2024-01-15T02:52:09;-1.30;99.90
27224;DHT22;14965;50.660;13.226;2024-01-15T02:54:35;-1.30;99.90
27224;DHT22;14965;50.660;13.226;2024-01-15T02:57:01;-1.30;99.90
27224;DHT22;14965;50.660;13.226;2024-01-15T02:59:28;-1.30;99.90
27224;DHT22;14965;50.660;13.226;2024-01-15T03:01:54;-1.40;99.90
27224;DHT22;14965;50.660;13.226;2024-01-15T03:04:20;-1.30;99.90
27224;DHT22;14965;50.660;13.226;2024-01-15T03:06:46;-1.40;99.90
27224;DHT22;14965;50.660;13.226;2024-01-15T03:09:12;-1.40;99.90
27224;DHT22;14965;50.660;13.226;2024-01-15T03:11:38;-1.40;99.90
27224;DHT22;14965;50.660;13.226;2024-01-15T03:14:04;-1.40;99.90
27224;DHT22;14965;50.660;13.226;2024-01-15T03:16:31;-1.50;99.90
27224;DHT22;14965;50.660;13.226;2024-01-15T03:18:57;-1.50;99.90
27224;DHT22;14965;50.660;13.226;2024-01-15T03:21:23;-1.50;99.90
27224;DHT22;14965;50.660;13.226;2024-01-15T03:23:49;-1.50;99.90
27224;DHT22;14965;50.660;13.226;2024-01-15T03:26:15;-1.50;99.90
27224;DHT22;14965;50.660;13.226;2024-01-15T03:28:41;-1.60;99.90
27224;DHT22;14965;50.660;13.226;2024-01-15T03:31:07;-1.60;99.90
27224;DHT22;14965;50.660;13.226;2024-01-15T03:33:34;-1.60;99.90
27224;DHT22;14965;50.660;13.226;2024-01-15T03:36:00;-1.60;99.90
27224;DHT22;14965;50.660;13.226;2024-01-15T03:38:28;-1.60;99.90
27224;DHT22;14965;50.660;13.226;2024-01-15T03:40:54;-1.70;99.90
27224;DHT22;14965;50.660;13.226;2024-01-15T03:43:20;-1.70;99.90
27224;DHT22;14965;50.660;13.226;2024-01-15T03:45:46;-1.70;99.90
27224;DHT22;14965;50.660;13.226;2024-01-15T03:48:12;-1.80;99.90
27224;DHT22;14965;50.660;13.226;2024-01-15T03:50:39;-1.80;99.90
27224;DHT22;14965;50.660;13.226;2024-01-15T03:53:05;-1.80;99.90
27224;DHT22;14965;50.660;13.226;2024-01-15T03:55:30;-1.80;99.90
27224;DHT22;14965;50.660;13.226;2024-01-15T03:57:56;-1.80;99.90
27224;DHT22;14965;50.660;13.226;2024-01-15T04:00:22;-1.80;99.90
27224;DHT22;14965;50.660;13.226;2024-01-15T04:02:48;-1.80;99.90
27224;DHT22;14965;50.660;13.226;2024-01-15T04:05:14;-1.80;99.90
27224;DHT22;14965;50.660;13.226;2024-01-15T04:07:41;-1.80;99.90
27224;DHT22;14965;50.660;13.226;2024-01-15T04:10:07;-1.80;99.90
27224;DHT22;14965;50.660;13.226;2024-01-15T04:12:33;-1.90;99.90
27224;DHT22;14965;50.660;13.226;2024-01-15T04:14:59;-1.90;99.90
27224;DHT22;14965;50.660;13.226;2024-01-15T04:17:25;-1.90;99.90
27224;DHT22;14965;50.660;13.226;2024-01-15T04:19:52;-1.80;99.90
27224;DHT22;14965;50.660;13.226;2024-01-15T04:22:18;-1.80;99.90
27224;DHT22;14965;50.660;13.226;2024-01-15T04:24:45;-1.80;99.90
27224;DHT22;14965;50.660;13.226;2024-01-15T04:27:11;-1.90;99.90
27224;DHT22;14965;50.660;13.226;2024-01-15T04:29:37;-1.90;99.90
27224;DHT22;14965;50.660;13.226;2024-01-15T04:32:04;-1.90;99.90
27224;DHT22;14965;50.660;13.226;2024-01-15T04:34:30;-2.00;99.90
27224;DHT22;14965;50.660;13.226;2024-01-15T04:36:56;-2.00;99.90
27224;DHT22;14965;50.660;13.226;2024-01-15T04:39:22;-2.00;99.90
27224;DHT22;14965;50.660;13.226;2024-01-15T04:41:49;-2.00;99.90
27224;DHT22;14965;50.660;13.226;2024-01-15T04:44:15;-2.00;99.90
27224;DHT22;14965;50.660;13.226;2024-01-15T04:46:41;-2.00;99.90
27224;DHT22;14965;50.660;13.226;2024-01-15T04:49:07;-2.10;99.90
27224;DHT22;14965;50.660;13.226;2024-01-15T04:51:33;-2.00;99.90
27224;DHT22;14965;50.660;13.226;2024-01-15T04:54:00;-2.00;99.90
27224;DHT22;14965;50.660;13.226;2024-01-15T04:56:26;-2.10;99.90
27224;DHT22;14965;50.660;13.226;2024-01-15T04:58:53;-2.00;99.90
27224;DHT22;14965;50.660;13.226;2024-01-15T05:01:19;-2.00;99.90
27224;DHT22;14965;50.660;13.226;2024-01-15T05:03:45;-2.00;99.90
27224;DHT22;14965;50.660;13.226;2024-01-15T05:06:11;-2.00;99.90
27224;DHT22;14965;50.660;13.226;2024-01-15T05:08:37;-2.00;99.90
27224;DHT22;14965;50.660;13.226;2024-01-15T05:11:03;-2.00;99.90
27224;DHT22;14965;50.660;13.226;2024-01-15T05:13:29;-2.00;99.90
27224;DHT22;14965;50.660;13.226;2024-01-15T05:15:56;-2.00;99.90
27224;DHT22;14965;50.660;13.226;2024-01-15T05:18:22;-2.00;99.90
27224;DHT22;14965;50.660;13.226;2024-01-15T05:20:48;-2.00;99.90
27224;DHT22;14965;50.660;13.226;2024-01-15T05:23:14;-2.00;99.90
27224;DHT22;14965;50.660;13.226;2024-01-15T05:25:40;-2.00;99.90
27224;DHT22;14965;50.660;13.226;2024-01-15T05:28:06;-2.10;99.90
27224;DHT22;14965;50.660;13.226;2024-01-15T05:30:31;-2.10;99.90
27224;DHT22;14965;50.660;13.226;2024-01-15T05:32:59;-2.10;99.90
27224;DHT22;14965;50.660;13.226;2024-01-15T05:35:25;-2.10;99.90
27224;DHT22;14965;50.660;13.226;2024-01-15T05:37:50;-2.10;99.90
27224;DHT22;14965;50.660;13.226;2024-01-15T05:40:16;-2.10;99.90
27224;DHT22;14965;50.660;13.226;2024-01-15T05:42:42;-2.10;99.90
27224;DHT22;14965;50.660;13.226;2024-01-15T05:45:08;-2.10;99.90
27224;DHT22;14965;50.660;13.226;2024-01-15T05:47:34;-2.10;99.90
27224;DHT22;14965;50.660;13.226;2024-01-15T05:50:02;-2.10;99.90
27224;DHT22;14965;50.660;13.226;2024-01-15T05:52:28;-2.10;99.90
27224;DHT22;14965;50.660;13.226;2024-01-15T05:54:54;-2.10;99.90
27224;DHT22;14965;50.660;13.226;2024-01-15T05:57:20;-2.10;99.90
27224;DHT22;14965;50.660;13.226;2024-01-15T05:59:46;-2.20;99.90
27224;DHT22;14965;50.660;13.226;2024-01-15T06:02:12;-2.20;99.90
27224;DHT22;14965;50.660;13.226;2024-01-15T06:04:37;-2.20;99.90
27224;DHT22;14965;50.660;13.226;2024-01-15T06:07:05;-2.20;99.90
27224;DHT22;14965;50.660;13.226;2024-01-15T06:09:30;-2.20;99.90
27224;DHT22;14965;50.660;13.226;2024-01-15T06:11:56;-2.20;99.90
27224;DHT22;14965;50.660;13.226;2024-01-15T06:14:22;-2.10;99.90
27224;DHT22;14965;50.660;13.226;2024-01-15T06:16:48;-2.20;99.90
27224;DHT22;14965;50.660;13.226;2024-01-15T06:19:14;-2.10;99.90
27224;DHT22;14965;50.660;13.226;2024-01-15T06:21:40;-2.10;99.90
27224;DHT22;14965;50.660;13.226;2024-01-15T06:24:07;-2.20;99.90
27224;DHT22;14965;50.660;13.226;2024-01-15T06:26:33;-2.20;99.90
27224;DHT22;14965;50.660;13.226;2024-01-15T06:28:59;-2.20;99.90
27224;DHT22;14965;50.660;13.226;2024-01-15T06:31:25;-2.20;99.90
27224;DHT22;14965;50.660;13.226;2024-01-15T06:33:54;-2.20;99.90
27224;DHT22;14965;50.660;13.226;2024-01-15T06:36:20;-2.20;99.90
27224;DHT22;14965;50.660;13.226;2024-01-15T06:38:46;-2.20;99.90
27224;DHT22;14965;50.660;13.226;2024-01-15T06:41:14;-2.30;99.90
27224;DHT22;14965;50.660;13.226;2024-01-15T06:43:40;-2.20;99.90
27224;DHT22;14965;50.660;13.226;2024-01-15T06:46:05;-2.30;99.90
27224;DHT22;14965;50.660;13.226;2024-01-15T06:48:31;-2.20;99.90
27224;DHT22;14965;50.660;13.226;2024-01-15T06:50:57;-2.30;99.90
27224;DHT22;14965;50.660;13.226;2024-01-15T06:53:23;-2.30;99.90
27224;DHT22;14965;50.660;13.226;2024-01-15T06:55:49;-2.30;99.90
27224;DHT22;14965;50.660;13.226;2024-01-15T06:58:16;-2.30;99.90
27224;DHT22;14965;50.660;13.226;2024-01-15T07:00:42;-2.20;99.90
27224;DHT22;14965;50.660;13.226;2024-01-15T07:03:08;-2.20;99.90
27224;DHT22;14965;50.660;13.226;2024-01-15T07:05:34;-2.30;99.90
27224;DHT22;14965;50.660;13.226;2024-01-15T07:08:00;-2.20;99.90
27224;DHT22;14965;50.660;13.226;2024-01-15T07:10:26;-2.20;99.90
27224;DHT22;14965;50.660;13.226;2024-01-15T07:12:52;-2.20;99.90
27224;DHT22;14965;50.660;13.226;2024-01-15T07:15:19;-2.20;99.90
27224;DHT22;14965;50.660;13.226;2024-01-15T07:17:45;-2.10;99.90
27224;DHT22;14965;50.660;13.226;2024-01-15T07:20:11;-2.10;99.90
27224;DHT22;14965;50.660;13.226;2024-01-15T07:22:37;-2.10;99.90
27224;DHT22;14965;50.660;13.226;2024-01-15T07:25:04;-2.00;99.90
27224;DHT22;14965;50.660;13.226;2024-01-15T07:27:30;-2.10;99.90
27224;DHT22;14965;50.660;13.226;2024-01-15T07:29:56;-2.10;99.90
27224;DHT22;14965;50.660;13.226;2024-01-15T07:32:24;-2.10;99.90
27224;DHT22;14965;50.660;13.226;2024-01-15T07:34:50;-2.10;99.90
27224;DHT22;14965;50.660;13.226;2024-01-15T07:37:16;-2.00;99.90
27224;DHT22;14965;50.660;13.226;2024-01-15T07:39:42;-2.10;99.90
27224;DHT22;14965;50.660;13.226;2024-01-15T07:42:07;-2.00;99.90
27224;DHT22;14965;50.660;13.226;2024-01-15T07:44:33;-2.00;99.90
27224;DHT22;14965;50.660;13.226;2024-01-15T07:46:59;-2.00;99.90
27224;DHT22;14965;50.660;13.226;2024-01-15T07:49:26;-2.10;99.90
27224;DHT22;14965;50.660;13.226;2024-01-15T07:51:52;-2.00;99.90
27224;DHT22;14965;50.660;13.226;2024-01-15T07:54:18;-2.00;99.90
27224;DHT22;14965;50.660;13.226;2024-01-15T07:56:54;-2.10;99.90
27224;DHT22;14965;50.660;13.226;2024-01-15T07:59:21;-2.00;99.90
27224;DHT22;14965;50.660;13.226;2024-01-15T08:01:46;-2.00;99.90
27224;DHT22;14965;50.660;13.226;2024-01-15T08:04:12;-2.00;99.90
27224;DHT22;14965;50.660;13.226;2024-01-15T08:06:40;-2.00;99.90
27224;DHT22;14965;50.660;13.226;2024-01-15T08:09:06;-2.00;99.90
27224;DHT22;14965;50.660;13.226;2024-01-15T08:11:32;-2.00;99.90
27224;DHT22;14965;50.660;13.226;2024-01-15T08:13:58;-2.00;99.90
27224;DHT22;14965;50.660;13.226;2024-01-15T08:16:24;-1.90;99.90
27224;DHT22;14965;50.660;13.226;2024-01-15T08:18:50;-2.00;99.90
27224;DHT22;14965;50.660;13.226;2024-01-15T08:21:16;-2.00;99.90
27224;DHT22;14965;50.660;13.226;2024-01-15T08:23:43;-2.00;99.90
27224;DHT22;14965;50.660;13.226;2024-01-15T08:26:10;-1.90;99.90
27224;DHT22;14965;50.660;13.226;2024-01-15T08:28:36;-2.00;99.90
27224;DHT22;14965;50.660;13.226;2024-01-15T08:31:02;-2.00;99.90
27224;DHT22;14965;50.660;13.226;2024-01-15T08:33:28;-1.90;99.90
27224;DHT22;14965;50.660;13.226;2024-01-15T08:35:54;-1.90;99.90
27224;DHT22;14965;50.660;13.226;2024-01-15T08:38:20;-1.90;99.90
27224;DHT22;14965;50.660;13.226;2024-01-15T08:40:48;-1.90;99.90
27224;DHT22;14965;50.660;13.226;2024-01-15T08:43:15;-1.90;99.90
27224;DHT22;14965;50.660;13.226;2024-01-15T08:45:43;-1.80;99.90
27224;DHT22;14965;50.660;13.226;2024-01-15T08:48:09;-1.90;99.90
27224;DHT22;14965;50.660;13.226;2024-01-15T08:50:34;-1.90;99.90
27224;DHT22;14965;50.660;13.226;2024-01-15T08:53:00;-1.90;99.90
27224;DHT22;14965;50.660;13.226;2024-01-15T08:55:26;-1.90;99.90
27224;DHT22;14965;50.660;13.226;2024-01-15T08:57:53;-1.90;99.90
27224;DHT22;14965;50.660;13.226;2024-01-15T09:00:19;-1.90;99.90
27224;DHT22;14965;50.660;13.226;2024-01-15T09:02:45;-1.80;99.90
27224;DHT22;14965;50.660;13.226;2024-01-15T09:05:11;-1.70;99.90
27224;DHT22;14965;50.660;13.226;2024-01-15T09:07:37;-1.60;99.90
27224;DHT22;14965;50.660;13.226;2024-01-15T09:10:04;-1.70;99.90
27224;DHT22;14965;50.660;13.226;2024-01-15T09:12:30;-1.70;99.90
27224;DHT22;14965;50.660;13.226;2024-01-15T09:14:58;-1.70;99.90
27224;DHT22;14965;50.660;13.226;2024-01-15T09:17:24;-1.70;99.90
27224;DHT22;14965;50.660;13.226;2024-01-15T09:19:49;-1.60;99.90
27224;DHT22;14965;50.660;13.226;2024-01-15T09:22:15;-1.60;99.90
27224;DHT22;14965;50.660;13.226;2024-01-15T09:24:44;-1.60;99.90
27224;DHT22;14965;50.660;13.226;2024-01-15T09:27:11;-1.60;99.90
27224;DHT22;14965;50.660;13.226;2024-01-15T09:29:37;-1.60;99.90
27224;DHT22;14965;50.660;13.226;2024-01-15T09:32:04;-1.60;99.90
27224;DHT22;14965;50.660;13.226;2024-01-15T09:34:30;-1.60;99.90
27224;DHT22;14965;50.660;13.226;2024-01-15T09:36:56;-1.60;99.90
27224;DHT22;14965;50.660;13.226;2024-01-15T09:39:22;-1.60;99.90
27224;DHT22;14965;50.660;13.226;2024-01-15T09:41:48;-1.60;99.90
27224;DHT22;14965;50.660;13.226;2024-01-15T09:44:15;-1.60;99.90
27224;DHT22;14965;50.660;13.226;2024-01-15T09:46:42;-1.60;99.90
27224;DHT22;14965;50.660;13.226;2024-01-15T09:49:10;-1.60;99.90
27224;DHT22;14965;50.660;13.226;2024-01-15T09:51:36;-1.50;99.90
27224;DHT22;14965;50.660;13.226;2024-01-15T09:54:04;-1.50;99.90
27224;DHT22;14965;50.660;13.226;2024-01-15T09:56:31;-1.40;99.90
27224;DHT22;14965;50.660;13.226;2024-01-15T09:58:57;-1.30;99.90
27224;DHT22;14965;50.660;13.226;2024-01-15T10:01:23;-1.30;99.90
27224;DHT22;14965;50.660;13.226;2024-01-15T10:03:50;-1.20;99.90
27224;DHT22;14965;50.660;13.226;2024-01-15T10:06:18;-1.20;99.90
27224;DHT22;14965;50.660;13.226;2024-01-15T10:08:48;-1.30;99.90
27224;DHT22;14965;50.660;13.226;2024-01-15T10:11:16;-1.20;99.90
27224;DHT22;14965;50.660;13.226;2024-01-15T10:13:43;-1.20;99.90
27224;DHT22;14965;50.660;13.226;2024-01-15T10:16:09;-1.10;99.90
27224;DHT22;14965;50.660;13.226;2024-01-15T10:18:35;-1.10;99.90
27224;DHT22;14965;50.660;13.226;2024-01-15T10:21:02;-1.10;99.90
27224;DHT22;14965;50.660;13.226;2024-01-15T10:23:32;-1.20;99.90
27224;DHT22;14965;50.660;13.226;2024-01-15T10:25:58;-1.10;99.90
27224;DHT22;14965;50.660;13.226;2024-01-15T10:28:26;-1.00;99.90
27224;DHT22;14965;50.660;13.226;2024-01-15T10:30:54;-1.00;99.90
27224;DHT22;14965;50.660;13.226;2024-01-15T10:33:22;-1.00;99.90
27224;DHT22;14965;50.660;13.226;2024-01-15T10:35:48;-0.90;99.90
27224;DHT22;14965;50.660;13.226;2024-01-15T10:38:15;-0.90;99.90
27224;DHT22;14965;50.660;13.226;2024-01-15T10:40:42;-0.80;99.90
27224;DHT22;14965;50.660;13.226;2024-01-15T10:43:08;-0.90;99.90
27224;DHT22;14965;50.660;13.226;2024-01-15T10:45:34;-0.90;99.90
27224;DHT22;14965;50.660;13.226;2024-01-15T10:48:00;-0.80;99.90
27224;DHT22;14965;50.660;13.226;2024-01-15T10:50:27;-0.80;99.90
27224;DHT22;14965;50.660;13.226;2024-01-15T10:52:55;-0.80;99.90
27224;DHT22;14965;50.660;13.226;2024-01-15T10:55:23;-0.80;99.90
27224;DHT22;14965;50.660;13.226;2024-01-15T10:57:52;-0.80;99.90
27224;DHT22;14965;50.660;13.226;2024-01-15T11:00:18;-0.80;99.90
27224;DHT22;14965;50.660;13.226;2024-01-15T11:02:46;-0.80;99.90
27224;DHT22;14965;50.660;13.226;2024-01-15T11:05:12;-0.80;99.90
27224;DHT22;14965;50.660;13.226;2024-01-15T11:07:39;-0.60;99.90
27224;DHT22;14965;50.660;13.226;2024-01-15T11:10:06;-0.60;99.90
27224;DHT22;14965;50.660;13.226;2024-01-15T11:12:33;-0.50;99.90
27224;DHT22;14965;50.660;13.226;2024-01-15T11:15:03;-0.50;99.90
27224;DHT22;14965;50.660;13.226;2024-01-15T11:17:59;-0.50;99.90
27224;DHT22;14965;50.660;13.226;2024-01-15T11:20:26;-0.50;99.90
27224;DHT22;14965;50.660;13.226;2024-01-15T11:22:52;-0.60;99.90
27224;DHT22;14965;50.660;13.226;2024-01-15T11:25:19;-0.60;99.90
27224;DHT22;14965;50.660;13.226;2024-01-15T11:27:46;-0.70;99.90
27224;DHT22;14965;50.660;13.226;2024-01-15T11:30:14;-0.70;99.90
27224;DHT22;14965;50.660;13.226;2024-01-15T11:32:40;-0.70;99.90
27224;DHT22;14965;50.660;13.226;2024-01-15T11:35:07;-0.60;99.90
27224;DHT22;14965;50.660;13.226;2024-01-15T11:37:57;-0.50;99.90
27224;DHT22;14965;50.660;13.226;2024-01-15T11:40:36;-0.40;99.90
27224;DHT22;14965;50.660;13.226;2024-01-15T11:43:04;-0.40;99.90
27224;DHT22;14965;50.660;13.226;2024-01-15T11:45:32;-0.40;99.90
27224;DHT22;14965;50.660;13.226;2024-01-15T11:48:12;-0.40;99.90
27224;DHT22;14965;50.660;13.226;2024-01-15T11:50:40;-0.40;99.90
27224;DHT22;14965;50.660;13.226;2024-01-15T11:53:13;-0.40;99.90
27224;DHT22;14965;50.660;13.226;2024-01-15T11:55:44;-0.40;99.90
27224;DHT22;14965;50.660;13.226;2024-01-15T11:58:11;-0.40;99.90
27224;DHT22;14965;50.660;13.226;2024-01-15T12:00:42;-0.40;99.90
27224;DHT22;14965;50.660;13.226;2024-01-15T12:03:09;-0.40;99.90
27224;DHT22;14965;50.660;13.226;2024-01-15T12:05:37;-0.40;99.90
27224;DHT22;14965;50.660;13.226;2024-01-15T12:08:04;-0.40;99.90
27224;DHT22;14965;50.660;13.226;2024-01-15T12:10:30;-0.40;99.90
27224;DHT22;14965;50.660;13.226;2024-01-15T12:12:58;-0.40;99.90
27224;DHT22;14965;50.660;13.226;2024-01-15T12:15:26;-0.40;99.90
27224;DHT22;14965;50.660;13.226;2024-01-15T12:17:56;-0.30;99.90
27224;DHT22;14965;50.660;13.226;2024-01-15T12:20:23;-0.30;99.90
27224;DHT22;14965;50.660;13.226;2024-01-15T12:22:50;-0.50;99.90
27224;DHT22;14965;50.660;13.226;2024-01-15T12:25:16;-0.50;99.90
27224;DHT22;14965;50.660;13.226;2024-01-15T12:27:42;-0.50;99.90
27224;DHT22;14965;50.660;13.226;2024-01-15T12:30:11;-0.50;99.90
27224;DHT22;14965;50.660;13.226;2024-01-15T12:32:38;-0.50;99.90
27224;DHT22;14965;50.660;13.226;2024-01-15T12:35:07;-0.50;99.90
27224;DHT22;14965;50.660;13.226;2024-01-15T12:37:35;-0.60;99.90
27224;DHT22;14965;50.660;13.226;2024-01-15T12:40:01;-0.60;99.90
27224;DHT22;14965;50.660;13.226;2024-01-15T12:42:28;-0.60;99.90
27224;DHT22;14965;50.660;13.226;2024-01-15T12:44:55;-0.60;99.90
27224;DHT22;14965;50.660;13.226;2024-01-15T12:47:22;-0.60;99.90
27224;DHT22;14965;50.660;13.226;2024-01-15T12:49:48;-0.70;99.90
27224;DHT22;14965;50.660;13.226;2024-01-15T12:52:15;-0.70;99.90
27224;DHT22;14965;50.660;13.226;2024-01-15T12:54:44;-0.70;99.90
27224;DHT22;14965;50.660;13.226;2024-01-15T12:57:10;-0.70;99.90
27224;DHT22;14965;50.660;13.226;2024-01-15T12:59:36;-0.80;99.90
27224;DHT22;14965;50.660;13.226;2024-01-15T13:02:02;-0.90;99.90
27224;DHT22;14965;50.660;13.226;2024-01-15T13:04:28;-0.90;99.90
27224;DHT22;14965;50.660;13.226;2024-01-15T13:06:54;-0.90;99.90
27224;DHT22;14965;50.660;13.226;2024-01-15T13:09:21;-0.90;99.90
27224;DHT22;14965;50.660;13.226;2024-01-15T13:11:47;-0.90;99.90
27224;DHT22;14965;50.660;13.226;2024-01-15T13:14:13;-0.90;99.90
27224;DHT22;14965;50.660;13.226;2024-01-15T13:16:39;-0.90;99.90
27224;DHT22;14965;50.660;13.226;2024-01-15T13:19:05;-0.90;99.90
27224;DHT22;14965;50.660;13.226;2024-01-15T13:21:31;-0.90;99.90
27224;DHT22;14965;50.660;13.226;2024-01-15T13:23:57;-0.90;99.90
27224;DHT22;14965;50.660;13.226;2024-01-15T13:26:24;-0.90;99.90
27224;DHT22;14965;50.660;13.226;2024-01-15T13:28:50;-0.90;99.90
27224;DHT22;14965;50.660;13.226;2024-01-15T13:31:16;-0.90;99.90
27224;DHT22;14965;50.660;13.226;2024-01-15T13:33:42;-0.80;99.90
27224;DHT22;14965;50.660;13.226;2024-01-15T13:36:08;-0.90;99.90
27224;DHT22;14965;50.660;13.226;2024-01-15T13:38:34;-0.90;99.90
27224;DHT22;14965;50.660;13.226;2024-01-15T13:41:00;-0.90;99.90
27224;DHT22;14965;50.660;13.226;2024-01-15T13:43:27;-1.00;99.90
27224;DHT22;14965;50.660;13.226;2024-01-15T13:45:53;-1.10;99.90
27224;DHT22;14965;50.660;13.226;2024-01-15T13:48:19;-1.00;99.90
27224;DHT22;14965;50.660;13.226;2024-01-15T13:50:45;-1.10;99.90
27224;DHT22;14965;50.660;13.226;2024-01-15T13:53:11;-1.10;99.90
27224;DHT22;14965;50.660;13.226;2024-01-15T13:55:37;-1.20;99.90
27224;DHT22;14965;50.660;13.226;2024-01-15T13:58:03;-1.20;99.90
27224;DHT22;14965;50.660;13.226;2024-01-15T14:00:31;-1.20;99.90
27224;DHT22;14965;50.660;13.226;2024-01-15T14:02:57;-1.20;99.90
27224;DHT22;14965;50.660;13.226;2024-01-15T14:05:23;-1.30;99.90
27224;DHT22;14965;50.660;13.226;2024-01-15T14:07:49;-1.20;99.90
27224;DHT22;14965;50.660;13.226;2024-01-15T14:10:15;-1.30;99.90
27224;DHT22;14965;50.660;13.226;2024-01-15T14:12:41;-1.20;99.90
27224;DHT22;14965;50.660;13.226;2024-01-15T14:15:07;-1.10;99.90
27224;DHT22;14965;50.660;13.226;2024-01-15T14:17:35;-1.20;99.90
27224;DHT22;14965;50.660;13.226;2024-01-15T14:20:01;-1.20;99.90
27224;DHT22;14965;50.660;13.226;2024-01-15T14:22:27;-1.10;99.90
27224;DHT22;14965;50.660;13.226;2024-01-15T14:24:53;-1.20;99.90
27224;DHT22;14965;50.660;13.226;2024-01-15T14:27:19;-1.20;99.90
27224;DHT22;14965;50.660;13.226;2024-01-15T14:29:45;-1.20;99.90
27224;DHT22;14965;50.660;13.226;2024-01-15T14:32:11;-1.20;99.90
27224;DHT22;14965;50.660;13.226;2024-01-15T14:34:39;-1.20;99.90
27224;DHT22;14965;50.660;13.226;2024-01-15T14:37:04;-1.20;99.90
27224;DHT22;14965;50.660;13.226;2024-01-15T14:39:30;-1.20;99.90
27224;DHT22;14965;50.660;13.226;2024-01-15T14:41:56;-1.20;99.90
27224;DHT22;14965;50.660;13.226;2024-01-15T14:44:22;-1.20;99.90
27224;DHT22;14965;50.660;13.226;2024-01-15T14:46:48;-1.30;99.90
27224;DHT22;14965;50.660;13.226;2024-01-15T14:49:14;-1.30;99.90
27224;DHT22;14965;50.660;13.226;2024-01-15T14:51:41;-1.30;99.90
27224;DHT22;14965;50.660;13.226;2024-01-15T14:54:07;-1.30;99.90
27224;DHT22;14965;50.660;13.226;2024-01-15T14:56:33;-1.30;99.90
27224;DHT22;14965;50.660;13.226;2024-01-15T14:58:58;-1.30;99.90
27224;DHT22;14965;50.660;13.226;2024-01-15T15:01:25;-1.30;99.90
27224;DHT22;14965;50.660;13.226;2024-01-15T15:03:51;-1.30;99.90
27224;DHT22;14965;50.660;13.226;2024-01-15T15:06:17;-1.30;99.90
27224;DHT22;14965;50.660;13.226;2024-01-15T15:08:45;-1.20;99.90
27224;DHT22;14965;50.660;13.226;2024-01-15T15:11:11;-1.20;99.90